sensor_id;sensor_type;location;lat;lon;timestamp;P1;durP1;ratioP1;P2;durP2;ratioP2
49376;SDS011;35253;34.688;33.040;2024-02-23T00:02:15;9.70;;;8.00;;
49376;SDS011;35253;34.688;33.040;2024-02-23T00:04:40;8.90;;;7.95;;
49376;SDS011;35253;34.688;33.040;2024-02-23T00:07:07;9.45;;;8.38;;
49376;SDS011;35253;34.688;33.040;2024-02-23T00:09:33;9.15;;;7.80;;
49376;SDS011;35253;34.688;33.040;2024-02-23T00:11:59;7.90;;;7.10;;
49376;SDS011;35253;34.688;33.040;2024-02-23T00:14:24;11.13;;;7.25;;
49376;SDS011;35253;34.688;33.040;2024-02-23T00:16:50;8.57;;;7.50;;
49376;SDS011;35253;34.688;33.040;2024-02-23T00:19:16;8.18;;;7.30;;
49376;SDS011;35253;34.688;33.040;2024-02-23T00:21:44;10.50;;;7.22;;
49376;SDS011;35253;34.688;33.040;2024-02-23T00:24:14;10.88;;;6.97;;
49376;SDS011;35253;34.688;33.040;2024-02-23T00:26:41;7.30;;;6.55;;
49376;SDS011;35253;34.688;33.040;2024-02-23T00:29:07;10.57;;;6.78;;
49376;SDS011;35253;34.688;33.040;2024-02-23T00:31:34;8.25;;;6.63;;
49376;SDS011;35253;34.688;33.040;2024-02-23T00:34:02;10.68;;;6.85;;
49376;SDS011;35253;34.688;33.040;2024-02-23T00:36:28;11.05;;;6.88;;
49376;SDS011;35253;34.688;33.040;2024-02-23T00:38:54;8.05;;;6.28;;
49376;SDS011;35253;34.688;33.040;2024-02-23T00:41:20;7.60;;;6.53;;
49376;SDS011;35253;34.688;33.040;2024-02-23T00:43:45;7.15;;;6.45;;
49376;SDS011;35253;34.688;33.040;2024-02-23T00:46:12;7.82;;;6.72;;
49376;SDS011;35253;34.688;33.040;2024-02-23T00:48:39;8.05;;;6.90;;
49376;SDS011;35253;34.688;33.040;2024-02-23T00:51:05;8.65;;;6.72;;
49376;SDS011;35253;34.688;33.040;2024-02-23T00:53:32;8.27;;;7.18;;
49376;SDS011;35253;34.688;33.040;2024-02-23T00:55:58;8.20;;;7.35;;
49376;SDS011;35253;34.688;33.040;2024-02-23T00:58:24;9.68;;;6.65;;
49376;SDS011;35253;34.688;33.040;2024-02-23T01:00:49;7.63;;;6.80;;
49376;SDS011;35253;34.688;33.040;2024-02-23T01:03:15;10.80;;;6.95;;
49376;SDS011;35253;34.688;33.040;2024-02-23T01:05:40;7.00;;;5.32;;
49376;SDS011;35253;34.688;33.040;2024-02-23T01:08:07;8.57;;;6.55;;
49376;SDS011;35253;34.688;33.040;2024-02-23T01:10:34;9.73;;;6.60;;
49376;SDS011;35253;34.688;33.040;2024-02-23T01:12:59;7.15;;;6.28;;
49376;SDS011;35253;34.688;33.040;2024-02-23T01:15:25;7.22;;;6.53;;
49376;SDS011;35253;34.688;33.040;2024-02-23T01:17:51;7.72;;;6.70;;
49376;SDS011;35253;34.688;33.040;2024-02-23T01:20:17;8.13;;;6.18;;
49376;SDS011;35253;34.688;33.040;2024-02-23T01:22:42;7.45;;;6.50;;
49376;SDS011;35253;34.688;33.040;2024-02-23T01:25:08;8.57;;;6.80;;
49376;SDS011;35253;34.688;33.040;2024-02-23T01:27:34;7.68;;;6.97;;
49376;SDS011;35253;34.688;33.040;2024-02-23T01:30:00;11.18;;;7.22;;
49376;SDS011;35253;34.688;33.040;2024-02-23T01:32:25;8.65;;;6.45;;
49376;SDS011;35253;34.688;33.040;2024-02-23T01:34:51;10.75;;;7.22;;
49376;SDS011;35253;34.688;33.040;2024-02-23T01:37:17;8.65;;;6.75;;
49376;SDS011;35253;34.688;33.040;2024-02-23T01:39:43;8.73;;;7.78;;
49376;SDS011;35253;34.688;33.040;2024-02-23T01:42:08;11.40;;;8.20;;
49376;SDS011;35253;34.688;33.040;2024-02-23T01:44:34;10.45;;;6.65;;
49376;SDS011;35253;34.688;33.040;2024-02-23T01:47:00;9.90;;;6.80;;
49376;SDS011;35253;34.688;33.040;2024-02-23T01:49:26;8.45;;;6.90;;
49376;SDS011;35253;34.688;33.040;2024-02-23T01:51:57;7.28;;;6.55;;
49376;SDS011;35253;34.688;33.040;2024-02-23T01:54:23;8.95;;;6.95;;
49376;SDS011;35253;34.688;33.040;2024-02-23T01:56:50;7.22;;;6.53;;
49376;SDS011;35253;34.688;33.040;2024-02-23T01:59:16;8.32;;;6.85;;
49376;SDS011;35253;34.688;33.040;2024-02-23T02:01:45;9.40;;;6.30;;
49376;SDS011;35253;34.688;33.040;2024-02-23T02:04:10;7.75;;;6.22;;
49376;SDS011;35253;34.688;33.040;2024-02-23T02:06:36;6.38;;;5.38;;
49376;SDS011;35253;34.688;33.040;2024-02-23T02:09:02;7.85;;;6.10;;
49376;SDS011;35253;34.688;33.040;2024-02-23T02:11:28;8.98;;;7.22;;
49376;SDS011;35253;34.688;33.040;2024-02-23T02:13:53;13.38;;;8.30;;
49376;SDS011;35253;34.688;33.040;2024-02-23T02:16:19;10.98;;;8.32;;
49376;SDS011;35253;34.688;33.040;2024-02-23T02:18:45;9.90;;;7.45;;
49376;SDS011;35253;34.688;33.040;2024-02-23T02:21:11;9.65;;;7.78;;
49376;SDS011;35253;34.688;33.040;2024-02-23T02:23:36;9.88;;;8.10;;
49376;SDS011;35253;34.688;33.040;2024-02-23T02:26:02;12.10;;;7.80;;
49376;SDS011;35253;34.688;33.040;2024-02-23T02:28:29;9.95;;;7.85;;
49376;SDS011;35253;34.688;33.040;2024-02-23T02:30:54;9.13;;;7.28;;
49376;SDS011;35253;34.688;33.040;2024-02-23T02:33:21;7.70;;;6.07;;
49376;SDS011;35253;34.688;33.040;2024-02-23T02:35:47;8.85;;;6.10;;
49376;SDS011;35253;34.688;33.040;2024-02-23T02:38:15;7.78;;;6.72;;
49376;SDS011;35253;34.688;33.040;2024-02-23T02:40:41;7.57;;;6.43;;
49376;SDS011;35253;34.688;33.040;2024-02-23T02:43:07;7.30;;;6.03;;
49376;SDS011;35253;34.688;33.040;2024-02-23T02:45:33;6.53;;;5.50;;
49376;SDS011;35253;34.688;33.040;2024-02-23T02:48:01;6.50;;;5.68;;
49376;SDS011;35253;34.688;33.040;2024-02-23T02:50:28;7.80;;;5.28;;
49376;SDS011;35253;34.688;33.040;2024-02-23T02:52:54;7.00;;;6.30;;
49376;SDS011;35253;34.688;33.040;2024-02-23T02:55:20;5.75;;;5.07;;
49376;SDS011;35253;34.688;33.040;2024-02-23T02:57:45;7.07;;;5.45;;
49376;SDS011;35253;34.688;33.040;2024-02-23T03:00:11;6.30;;;5.38;;
49376;SDS011;35253;34.688;33.040;2024-02-23T03:02:37;6.47;;;5.78;;
49376;SDS011;35253;34.688;33.040;2024-02-23T03:05:03;6.45;;;4.90;;
49376;SDS011;35253;34.688;33.040;2024-02-23T03:07:29;5.80;;;5.03;;
49376;SDS011;35253;34.688;33.040;2024-02-23T03:09:54;6.90;;;4.90;;
49376;SDS011;35253;34.688;33.040;2024-02-23T03:12:21;5.47;;;4.95;;
49376;SDS011;35253;34.688;33.040;2024-02-23T03:14:47;8.38;;;5.05;;
49376;SDS011;35253;34.688;33.040;2024-02-23T03:17:12;5.57;;;5.00;;
49376;SDS011;35253;34.688;33.040;2024-02-23T03:19:38;5.80;;;5.00;;
49376;SDS011;35253;34.688;33.040;2024-02-23T03:22:04;5.65;;;4.93;;
49376;SDS011;35253;34.688;33.040;2024-02-23T03:24:30;6.40;;;5.47;;
49376;SDS011;35253;34.688;33.040;2024-02-23T03:26:56;7.45;;;6.00;;
49376;SDS011;35253;34.688;33.040;2024-02-23T03:29:22;7.30;;;5.38;;
49376;SDS011;35253;34.688;33.040;2024-02-23T03:31:49;7.07;;;5.15;;
49376;SDS011;35253;34.688;33.040;2024-02-23T03:34:16;9.15;;;6.13;;
49376;SDS011;35253;34.688;33.040;2024-02-23T03:36:42;6.50;;;5.47;;
49376;SDS011;35253;34.688;33.040;2024-02-23T03:39:08;7.00;;;6.22;;
49376;SDS011;35253;34.688;33.040;2024-02-23T03:41:33;6.40;;;5.72;;
49376;SDS011;35253;34.688;33.040;2024-02-23T03:43:59;6.30;;;5.70;;
49376;SDS011;35253;34.688;33.040;2024-02-23T03:46:25;7.28;;;6.38;;
49376;SDS011;35253;34.688;33.040;2024-02-23T03:48:50;8.38;;;6.30;;
49376;SDS011;35253;34.688;33.040;2024-02-23T03:51:17;12.15;;;6.22;;
49376;SDS011;35253;34.688;33.040;2024-02-23T03:53:43;7.93;;;7.13;;
49376;SDS011;35253;34.688;33.040;2024-02-23T03:56:08;6.43;;;5.72;;
49376;SDS011;35253;34.688;33.040;2024-02-23T03:58:34;11.80;;;6.35;;
49376;SDS011;35253;34.688;33.040;2024-02-23T04:00:59;7.65;;;6.07;;
49376;SDS011;35253;34.688;33.040;2024-02-23T04:03:25;8.52;;;7.63;;
49376;SDS011;35253;34.688;33.040;2024-02-23T04:05:50;11.98;;;6.60;;
49376;SDS011;35253;34.688;33.040;2024-02-23T04:08:16;10.63;;;7.25;;
49376;SDS011;35253;34.688;33.040;2024-02-23T04:10:42;10.68;;;6.25;;
49376;SDS011;35253;34.688;33.040;2024-02-23T04:13:07;6.20;;;5.60;;
49376;SDS011;35253;34.688;33.040;2024-02-23T04:15:33;8.10;;;5.55;;
49376;SDS011;35253;34.688;33.040;2024-02-23T04:17:59;8.63;;;6.35;;
49376;SDS011;35253;34.688;33.040;2024-02-23T04:20:25;7.55;;;5.93;;
49376;SDS011;35253;34.688;33.040;2024-02-23T04:22:50;7.47;;;6.20;;
49376;SDS011;35253;34.688;33.040;2024-02-23T04:25:16;11.35;;;6.50;;
49376;SDS011;35253;34.688;33.040;2024-02-23T04:27:42;6.60;;;5.95;;
49376;SDS011;35253;34.688;33.040;2024-02-23T04:30:08;8.13;;;5.47;;
49376;SDS011;35253;34.688;33.040;2024-02-23T04:32:36;7.88;;;5.82;;
49376;SDS011;35253;34.688;33.040;2024-02-23T04:35:02;10.63;;;5.93;;
49376;SDS011;35253;34.688;33.040;2024-02-23T04:37:28;5.93;;;5.30;;
49376;SDS011;35253;34.688;33.040;2024-02-23T04:39:54;8.82;;;5.95;;
49376;SDS011;35253;34.688;33.040;2024-02-23T04:42:19;6.32;;;5.60;;
49376;SDS011;35253;34.688;33.040;2024-02-23T04:44:45;8.30;;;6.93;;
49376;SDS011;35253;34.688;33.040;2024-02-23T04:47:11;10.73;;;6.88;;
49376;SDS011;35253;34.688;33.040;2024-02-23T04:49:36;8.68;;;5.55;;
49376;SDS011;35253;34.688;33.040;2024-02-23T04:52:02;7.65;;;5.80;;
49376;SDS011;35253;34.688;33.040;2024-02-23T04:54:30;9.88;;;5.93;;
49376;SDS011;35253;34.688;33.040;2024-02-23T04:56:56;7.65;;;5.95;;
49376;SDS011;35253;34.688;33.040;2024-02-23T04:59:21;7.78;;;5.38;;
49376;SDS011;35253;34.688;33.040;2024-02-23T05:01:47;7.80;;;4.78;;
49376;SDS011;35253;34.688;33.040;2024-02-23T05:04:12;7.43;;;5.88;;
49376;SDS011;35253;34.688;33.040;2024-02-23T05:06:38;5.00;;;4.50;;
49376;SDS011;35253;34.688;33.040;2024-02-23T05:09:04;8.80;;;5.05;;
49376;SDS011;35253;34.688;33.040;2024-02-23T05:11:31;10.95;;;5.03;;
49376;SDS011;35253;34.688;33.040;2024-02-23T05:13:56;7.50;;;4.70;;
49376;SDS011;35253;34.688;33.040;2024-02-23T05:16:22;5.13;;;4.45;;
49376;SDS011;35253;34.688;33.040;2024-02-23T05:18:48;8.02;;;5.18;;
49376;SDS011;35253;34.688;33.040;2024-02-23T05:21:16;9.23;;;5.30;;
49376;SDS011;35253;34.688;33.040;2024-02-23T05:23:42;10.73;;;5.18;;
49376;SDS011;35253;34.688;33.040;2024-02-23T05:26:08;10.13;;;5.03;;
49376;SDS011;35253;34.688;33.040;2024-02-23T05:28:33;11.05;;;5.05;;
49376;SDS011;35253;34.688;33.040;2024-02-23T05:31:01;12.68;;;4.72;;
49376;SDS011;35253;34.688;33.040;2024-02-23T05:33:28;11.63;;;6.78;;
49376;SDS011;35253;34.688;33.040;2024-02-23T05:35:54;16.05;;;5.78;;
49376;SDS011;35253;34.688;33.040;2024-02-23T05:38:20;10.98;;;5.00;;
49376;SDS011;35253;34.688;33.040;2024-02-23T05:40:45;11.23;;;5.20;;
49376;SDS011;35253;34.688;33.040;2024-02-23T05:43:13;13.75;;;6.03;;
49376;SDS011;35253;34.688;33.040;2024-02-23T05:45:39;9.75;;;5.97;;
49376;SDS011;35253;34.688;33.040;2024-02-23T05:48:06;16.15;;;5.78;;
49376;SDS011;35253;34.688;33.040;2024-02-23T05:50:32;14.95;;;5.80;;
49376;SDS011;35253;34.688;33.040;2024-02-23T05:52:57;12.70;;;5.97;;
49376;SDS011;35253;34.688;33.040;2024-02-23T05:55:23;12.68;;;5.78;;
49376;SDS011;35253;34.688;33.040;2024-02-23T05:57:49;14.35;;;5.25;;
49376;SDS011;35253;34.688;33.040;2024-02-23T06:00:16;11.73;;;6.38;;
49376;SDS011;35253;34.688;33.040;2024-02-23T06:02:44;12.32;;;6.18;;
49376;SDS011;35253;34.688;33.040;2024-02-23T06:05:11;12.55;;;5.57;;
49376;SDS011;35253;34.688;33.040;2024-02-23T06:07:37;10.88;;;5.65;;
49376;SDS011;35253;34.688;33.040;2024-02-23T06:10:03;11.38;;;6.22;;
49376;SDS011;35253;34.688;33.040;2024-02-23T06:12:31;10.40;;;5.30;;
49376;SDS011;35253;34.688;33.040;2024-02-23T06:14:57;11.63;;;5.47;;
49376;SDS011;35253;34.688;33.040;2024-02-23T06:17:23;15.45;;;5.68;;
49376;SDS011;35253;34.688;33.040;2024-02-23T06:19:49;10.45;;;4.70;;
49376;SDS011;35253;34.688;33.040;2024-02-23T06:22:15;6.70;;;4.68;;
49376;SDS011;35253;34.688;33.040;2024-02-23T06:24:46;11.18;;;4.47;;
49376;SDS011;35253;34.688;33.040;2024-02-23T06:27:12;7.95;;;4.72;;
49376;SDS011;35253;34.688;33.040;2024-02-23T06:29:38;7.03;;;4.68;;
49376;SDS011;35253;34.688;33.040;2024-02-23T06:32:04;12.15;;;5.57;;
49376;SDS011;35253;34.688;33.040;2024-02-23T06:34:30;5.78;;;4.55;;
49376;SDS011;35253;34.688;33.040;2024-02-23T06:36:56;6.70;;;4.85;;
49376;SDS011;35253;34.688;33.040;2024-02-23T06:39:22;4.95;;;4.35;;
49376;SDS011;35253;34.688;33.040;2024-02-23T06:41:48;10.55;;;4.30;;
49376;SDS011;35253;34.688;33.040;2024-02-23T06:44:13;12.13;;;5.25;;
49376;SDS011;35253;34.688;33.040;2024-02-23T06:46:39;10.85;;;4.55;;
49376;SDS011;35253;34.688;33.040;2024-02-23T06:49:05;6.30;;;4.82;;
49376;SDS011;35253;34.688;33.040;2024-02-23T06:51:31;6.03;;;4.88;;
49376;SDS011;35253;34.688;33.040;2024-02-23T06:53:57;8.48;;;4.72;;
49376;SDS011;35253;34.688;33.040;2024-02-23T06:56:23;21.80;;;6.40;;
49376;SDS011;35253;34.688;33.040;2024-02-23T06:58:48;9.02;;;6.63;;
49376;SDS011;35253;34.688;33.040;2024-02-23T07:01:14;12.05;;;7.13;;
49376;SDS011;35253;34.688;33.040;2024-02-23T07:03:40;11.15;;;7.03;;
49376;SDS011;35253;34.688;33.040;2024-02-23T07:06:07;10.10;;;7.05;;
49376;SDS011;35253;34.688;33.040;2024-02-23T07:08:35;10.60;;;7.25;;
49376;SDS011;35253;34.688;33.040;2024-02-23T07:11:01;10.45;;;6.78;;
49376;SDS011;35253;34.688;33.040;2024-02-23T07:13:26;10.88;;;6.90;;
49376;SDS011;35253;34.688;33.040;2024-02-23T07:15:52;13.35;;;7.30;;
49376;SDS011;35253;34.688;33.040;2024-02-23T07:18:18;13.65;;;7.53;;
49376;SDS011;35253;34.688;33.040;2024-02-23T07:20:44;12.63;;;7.53;;
49376;SDS011;35253;34.688;33.040;2024-02-23T07:23:09;12.43;;;7.50;;
49376;SDS011;35253;34.688;33.040;2024-02-23T07:25:35;10.60;;;7.25;;
49376;SDS011;35253;34.688;33.040;2024-02-23T07:28:01;12.80;;;8.25;;
49376;SDS011;35253;34.688;33.040;2024-02-23T07:30:26;9.18;;;8.25;;
49376;SDS011;35253;34.688;33.040;2024-02-23T07:32:52;10.65;;;8.43;;
49376;SDS011;35253;34.688;33.040;2024-02-23T07:35:17;11.20;;;7.55;;
49376;SDS011;35253;34.688;33.040;2024-02-23T07:37:43;12.07;;;9.65;;
49376;SDS011;35253;34.688;33.040;2024-02-23T07:40:09;12.45;;;8.50;;
49376;SDS011;35253;34.688;33.040;2024-02-23T07:42:35;11.77;;;8.43;;
49376;SDS011;35253;34.688;33.040;2024-02-23T07:45:01;13.27;;;9.20;;
49376;SDS011;35253;34.688;33.040;2024-02-23T07:47:31;10.70;;;9.20;;
49376;SDS011;35253;34.688;33.040;2024-02-23T07:49:57;9.57;;;8.57;;
49376;SDS011;35253;34.688;33.040;2024-02-23T07:52:23;11.95;;;8.02;;
49376;SDS011;35253;34.688;33.040;2024-02-23T07:54:49;12.10;;;9.77;;
49376;SDS011;35253;34.688;33.040;2024-02-23T07:57:17;11.15;;;9.00;;
49376;SDS011;35253;34.688;33.040;2024-02-23T07:59:44;8.75;;;7.82;;
49376;SDS011;35253;34.688;33.040;2024-02-23T08:02:09;10.55;;;7.65;;
49376;SDS011;35253;34.688;33.040;2024-02-23T08:04:35;10.05;;;8.02;;
49376;SDS011;35253;34.688;33.040;2024-02-23T08:07:01;8.95;;;7.68;;
49376;SDS011;35253;34.688;33.040;2024-02-23T08:09:27;9.65;;;8.50;;
49376;SDS011;35253;34.688;33.040;2024-02-23T08:11:52;12.32;;;9.50;;
49376;SDS011;35253;34.688;33.040;2024-02-23T08:14:18;10.25;;;8.23;;
49376;SDS011;35253;34.688;33.040;2024-02-23T08:16:44;10.45;;;8.63;;
49376;SDS011;35253;34.688;33.040;2024-02-23T08:19:09;12.77;;;9.25;;
49376;SDS011;35253;34.688;33.040;2024-02-23T08:21:35;12.10;;;8.50;;
49376;SDS011;35253;34.688;33.040;2024-02-23T08:24:01;10.48;;;8.63;;
49376;SDS011;35253;34.688;33.040;2024-02-23T08:26:27;9.25;;;8.35;;
49376;SDS011;35253;34.688;33.040;2024-02-23T08:28:53;8.38;;;7.57;;
49376;SDS011;35253;34.688;33.040;2024-02-23T08:31:19;9.70;;;8.10;;
49376;SDS011;35253;34.688;33.040;2024-02-23T08:33:44;20.90;;;11.70;;
49376;SDS011;35253;34.688;33.040;2024-02-23T08:36:10;11.80;;;9.00;;
49376;SDS011;35253;34.688;33.040;2024-02-23T08:38:36;9.23;;;7.75;;
49376;SDS011;35253;34.688;33.040;2024-02-23T08:41:02;8.63;;;7.78;;
49376;SDS011;35253;34.688;33.040;2024-02-23T08:43:28;12.75;;;7.53;;
49376;SDS011;35253;34.688;33.040;2024-02-23T08:45:53;9.48;;;7.95;;
49376;SDS011;35253;34.688;33.040;2024-02-23T08:48:19;24.65;;;9.75;;
49376;SDS011;35253;34.688;33.040;2024-02-23T08:50:45;13.43;;;9.45;;
49376;SDS011;35253;34.688;33.040;2024-02-23T08:53:10;15.00;;;10.15;;
49376;SDS011;35253;34.688;33.040;2024-02-23T08:55:36;10.63;;;7.47;;
49376;SDS011;35253;34.688;33.040;2024-02-23T08:58:02;12.25;;;9.45;;
49376;SDS011;35253;34.688;33.040;2024-02-23T09:00:27;13.65;;;8.65;;
49376;SDS011;35253;34.688;33.040;2024-02-23T09:02:53;13.85;;;12.18;;
49376;SDS011;35253;34.688;33.040;2024-02-23T09:05:19;13.73;;;9.90;;
49376;SDS011;35253;34.688;33.040;2024-02-23T09:07:45;14.77;;;9.90;;
49376;SDS011;35253;34.688;33.040;2024-02-23T09:10:11;8.25;;;7.07;;
49376;SDS011;35253;34.688;33.040;2024-02-23T09:12:37;13.00;;;8.27;;
49376;SDS011;35253;34.688;33.040;2024-02-23T09:15:03;19.77;;;9.82;;
49376;SDS011;35253;34.688;33.040;2024-02-23T09:17:30;11.77;;;8.15;;
49376;SDS011;35253;34.688;33.040;2024-02-23T09:19:56;12.60;;;7.80;;
49376;SDS011;35253;34.688;33.040;2024-02-23T09:22:21;12.32;;;7.32;;
49376;SDS011;35253;34.688;33.040;2024-02-23T09:24:47;9.38;;;6.63;;
49376;SDS011;35253;34.688;33.040;2024-02-23T09:27:13;24.52;;;11.65;;
49376;SDS011;35253;34.688;33.040;2024-02-23T09:29:40;9.77;;;8.45;;
49376;SDS011;35253;34.688;33.040;2024-02-23T09:32:06;14.68;;;8.55;;
49376;SDS011;35253;34.688;33.040;2024-02-23T09:34:32;20.02;;;11.25;;
49376;SDS011;35253;34.688;33.040;2024-02-23T09:36:58;10.90;;;7.40;;
49376;SDS011;35253;34.688;33.040;2024-02-23T09:39:23;10.68;;;7.70;;
49376;SDS011;35253;34.688;33.040;2024-02-23T09:41:51;13.70;;;9.35;;
49376;SDS011;35253;34.688;33.040;2024-02-23T09:44:19;11.90;;;9.18;;
49376;SDS011;35253;34.688;33.040;2024-02-23T09:46:47;10.95;;;8.00;;
49376;SDS011;35253;34.688;33.040;2024-02-23T09:49:14;24.55;;;11.27;;
49376;SDS011;35253;34.688;33.040;2024-02-23T09:51:43;8.68;;;7.78;;
49376;SDS011;35253;34.688;33.040;2024-02-23T09:54:09;13.95;;;10.70;;
49376;SDS011;35253;34.688;33.040;2024-02-23T09:56:35;17.40;;;10.55;;
49376;SDS011;35253;34.688;33.040;2024-02-23T09:59:02;9.98;;;8.00;;
49376;SDS011;35253;34.688;33.040;2024-02-23T10:01:29;25.48;;;14.18;;
49376;SDS011;35253;34.688;33.040;2024-02-23T10:03:58;24.05;;;12.02;;
49376;SDS011;35253;34.688;33.040;2024-02-23T10:06:25;9.93;;;8.02;;
49376;SDS011;35253;34.688;33.040;2024-02-23T10:08:52;13.18;;;9.30;;
49376;SDS011;35253;34.688;33.040;2024-02-23T10:11:21;9.50;;;7.60;;
49376;SDS011;35253;34.688;33.040;2024-02-23T10:13:49;8.98;;;8.00;;
49376;SDS011;35253;34.688;33.040;2024-02-23T10:16:17;17.63;;;9.32;;
49376;SDS011;35253;34.688;33.040;2024-02-23T10:18:46;28.65;;;15.57;;
49376;SDS011;35253;34.688;33.040;2024-02-23T10:21:18;23.00;;;12.52;;
49376;SDS011;35253;34.688;33.040;2024-02-23T10:23:44;12.57;;;7.80;;
49376;SDS011;35253;34.688;33.040;2024-02-23T10:26:10;6.78;;;5.80;;
49376;SDS011;35253;34.688;33.040;2024-02-23T10:28:44;17.30;;;9.52;;
49376;SDS011;35253;34.688;33.040;2024-02-23T10:31:11;10.95;;;8.10;;
49376;SDS011;35253;34.688;33.040;2024-02-23T10:33:36;15.50;;;7.47;;
49376;SDS011;35253;34.688;33.040;2024-02-23T10:36:03;9.63;;;6.88;;
49376;SDS011;35253;34.688;33.040;2024-02-23T10:38:33;6.82;;;6.13;;
49376;SDS011;35253;34.688;33.040;2024-02-23T10:41:05;6.97;;;5.57;;
49376;SDS011;35253;34.688;33.040;2024-02-23T10:43:36;6.10;;;5.57;;
49376;SDS011;35253;34.688;33.040;2024-02-23T10:46:14;18.20;;;8.90;;
49376;SDS011;35253;34.688;33.040;2024-02-23T10:48:43;6.18;;;5.57;;
49376;SDS011;35253;34.688;33.040;2024-02-23T10:51:10;5.80;;;4.65;;
49376;SDS011;35253;34.688;33.040;2024-02-23T10:53:39;7.30;;;6.00;;
49376;SDS011;35253;34.688;33.040;2024-02-23T10:56:05;8.35;;;6.00;;
49376;SDS011;35253;34.688;33.040;2024-02-23T10:58:32;5.63;;;4.90;;
49376;SDS011;35253;34.688;33.040;2024-02-23T11:00:59;15.85;;;9.20;;
49376;SDS011;35253;34.688;33.040;2024-02-23T11:03:29;11.98;;;8.88;;
49376;SDS011;35253;34.688;33.040;2024-02-23T11:05:58;15.23;;;11.27;;
49376;SDS011;35253;34.688;33.040;2024-02-23T11:08:27;11.90;;;8.85;;
49376;SDS011;35253;34.688;33.040;2024-02-23T11:10:53;19.75;;;15.98;;
49376;SDS011;35253;34.688;33.040;2024-02-23T11:13:42;23.85;;;14.48;;
49376;SDS011;35253;34.688;33.040;2024-02-23T11:16:06;8.55;;;7.60;;
49376;SDS011;35253;34.688;33.040;2024-02-23T11:18:36;14.23;;;7.93;;
49376;SDS011;35253;34.688;33.040;2024-02-23T11:21:04;14.48;;;7.57;;
49376;SDS011;35253;34.688;33.040;2024-02-23T11:23:41;11.63;;;7.28;;
49376;SDS011;35253;34.688;33.040;2024-02-23T11:26:13;16.70;;;10.13;;
49376;SDS011;35253;34.688;33.040;2024-02-23T11:28:49;15.52;;;9.43;;
49376;SDS011;35253;34.688;33.040;2024-02-23T11:31:20;13.63;;;9.25;;
49376;SDS011;35253;34.688;33.040;2024-02-23T11:33:50;8.90;;;7.60;;
49376;SDS011;35253;34.688;33.040;2024-02-23T11:36:23;16.10;;;9.00;;
49376;SDS011;35253;34.688;33.040;2024-02-23T11:38:54;10.52;;;7.15;;
49376;SDS011;35253;34.688;33.040;2024-02-23T11:41:21;10.48;;;8.20;;
49376;SDS011;35253;34.688;33.040;2024-02-23T11:43:48;9.43;;;8.52;;
49376;SDS011;35253;34.688;33.040;2024-02-23T11:46:15;10.20;;;7.53;;
49376;SDS011;35253;34.688;33.040;2024-02-23T11:48:42;11.93;;;8.20;;
49376;SDS011;35253;34.688;33.040;2024-02-23T11:51:09;9.10;;;7.90;;
49376;SDS011;35253;34.688;33.040;2024-02-23T11:53:38;12.95;;;9.25;;
49376;SDS011;35253;34.688;33.040;2024-02-23T11:56:07;11.40;;;8.30;;
49376;SDS011;35253;34.688;33.040;2024-02-23T11:58:33;18.70;;;7.97;;
49376;SDS011;35253;34.688;33.040;2024-02-23T12:00:59;12.77;;;8.68;;
49376;SDS011;35253;34.688;33.040;2024-02-23T12:03:31;11.73;;;8.50;;
49376;SDS011;35253;34.688;33.040;2024-02-23T12:05:57;13.82;;;10.57;;
49376;SDS011;35253;34.688;33.040;2024-02-23T12:08:24;18.42;;;9.60;;
49376;SDS011;35253;34.688;33.040;2024-02-23T12:10:56;11.98;;;8.68;;
49376;SDS011;35253;34.688;33.040;2024-02-23T12:13:25;11.73;;;8.50;;
49376;SDS011;35253;34.688;33.040;2024-02-23T12:15:52;12.05;;;9.43;;
49376;SDS011;35253;34.688;33.040;2024-02-23T12:18:21;9.57;;;8.63;;
49376;SDS011;35253;34.688;33.040;2024-02-23T12:21:06;22.92;;;9.80;;
49376;SDS011;35253;34.688;33.040;2024-02-23T12:23:39;13.13;;;8.95;;
49376;SDS011;35253;34.688;33.040;2024-02-23T12:26:09;14.38;;;8.98;;
49376;SDS011;35253;34.688;33.040;2024-02-23T12:28:38;15.13;;;9.37;;
49376;SDS011;35253;34.688;33.040;2024-02-23T12:31:04;23.83;;;12.10;;
49376;SDS011;35253;34.688;33.040;2024-02-23T12:33:31;16.98;;;10.85;;
49376;SDS011;35253;34.688;33.040;2024-02-23T12:35:59;11.57;;;9.77;;
49376;SDS011;35253;34.688;33.040;2024-02-23T12:38:25;9.50;;;8.50;;
49376;SDS011;35253;34.688;33.040;2024-02-23T12:40:51;11.02;;;8.68;;
49376;SDS011;35253;34.688;33.040;2024-02-23T12:43:18;9.60;;;7.63;;
49376;SDS011;35253;34.688;33.040;2024-02-23T12:45:47;26.70;;;11.47;;
49376;SDS011;35253;34.688;33.040;2024-02-23T12:50:42;23.13;;;12.95;;
49376;SDS011;35253;34.688;33.040;2024-02-23T12:53:08;10.32;;;9.05;;
49376;SDS011;35253;34.688;33.040;2024-02-23T12:55:35;11.57;;;8.65;;
49376;SDS011;35253;34.688;33.040;2024-02-23T12:58:02;30.25;;;14.98;;
49376;SDS011;35253;34.688;33.040;2024-02-23T13:00:28;24.00;;;10.70;;
49376;SDS011;35253;34.688;33.040;2024-02-23T13:02:53;15.88;;;10.25;;
49376;SDS011;35253;34.688;33.040;2024-02-23T13:05:19;28.52;;;13.65;;
49376;SDS011;35253;34.688;33.040;2024-02-23T13:07:45;31.80;;;17.27;;
49376;SDS011;35253;34.688;33.040;2024-02-23T13:10:12;52.67;;;25.55;;
49376;SDS011;35253;34.688;33.040;2024-02-23T13:12:38;25.38;;;14.07;;
49376;SDS011;35253;34.688;33.040;2024-02-23T13:15:04;17.20;;;10.05;;
49376;SDS011;35253;34.688;33.040;2024-02-23T13:17:29;18.92;;;8.93;;
49376;SDS011;35253;34.688;33.040;2024-02-23T13:19:55;10.65;;;8.23;;
49376;SDS011;35253;34.688;33.040;2024-02-23T13:22:21;8.40;;;7.50;;
49376;SDS011;35253;34.688;33.040;2024-02-23T13:24:46;10.77;;;7.68;;
49376;SDS011;35253;34.688;33.040;2024-02-23T13:27:12;10.35;;;7.35;;
49376;SDS011;35253;34.688;33.040;2024-02-23T13:29:38;10.10;;;7.60;;
49376;SDS011;35253;34.688;33.040;2024-02-23T13:32:03;8.27;;;6.38;;
49376;SDS011;35253;34.688;33.040;2024-02-23T13:34:29;13.40;;;8.88;;
49376;SDS011;35253;34.688;33.040;2024-02-23T13:36:55;7.95;;;7.15;;
49376;SDS011;35253;34.688;33.040;2024-02-23T13:39:20;8.68;;;7.40;;
49376;SDS011;35253;34.688;33.040;2024-02-23T13:41:46;7.18;;;6.47;;
49376;SDS011;35253;34.688;33.040;2024-02-23T13:44:12;14.13;;;7.40;;
49376;SDS011;35253;34.688;33.040;2024-02-23T13:46:38;14.70;;;9.30;;
49376;SDS011;35253;34.688;33.040;2024-02-23T13:49:07;9.07;;;7.32;;
49376;SDS011;35253;34.688;33.040;2024-02-23T13:51:34;10.48;;;7.57;;
49376;SDS011;35253;34.688;33.040;2024-02-23T13:54:00;14.52;;;8.70;;
49376;SDS011;35253;34.688;33.040;2024-02-23T13:56:26;10.20;;;8.30;;
49376;SDS011;35253;34.688;33.040;2024-02-23T13:58:51;9.35;;;7.28;;
49376;SDS011;35253;34.688;33.040;2024-02-23T14:01:17;9.13;;;8.13;;
49376;SDS011;35253;34.688;33.040;2024-02-23T14:03:43;11.52;;;9.23;;
49376;SDS011;35253;34.688;33.040;2024-02-23T14:06:08;10.93;;;8.27;;
49376;SDS011;35253;34.688;33.040;2024-02-23T14:08:34;8.88;;;7.40;;
49376;SDS011;35253;34.688;33.040;2024-02-23T14:11:02;19.00;;;12.50;;
49376;SDS011;35253;34.688;33.040;2024-02-23T14:13:31;18.38;;;10.85;;
49376;SDS011;35253;34.688;33.040;2024-02-23T14:15:57;18.23;;;12.00;;
49376;SDS011;35253;34.688;33.040;2024-02-23T14:18:23;18.60;;;12.50;;
49376;SDS011;35253;34.688;33.040;2024-02-23T14:20:49;16.65;;;10.05;;
49376;SDS011;35253;34.688;33.040;2024-02-23T14:23:14;11.65;;;9.00;;
49376;SDS011;35253;34.688;33.040;2024-02-23T14:25:40;31.33;;;19.05;;